Patton, Texas
Current Conditions -  °F | °C
As of 3:55 PM on Monday 20 Oct 2014 (Local Time) from K6R3 Reporting Station
Clear Clear  
Wind Chill: 80°   Ceiling: Unl
Heat Index: 81°   Visibility: 10mi
Dew Point: 62°   Wind: 0mph
Humidity: 53%   Direction: NA
Pressure: 30.01"   Gusts: NA
Location:  30.2559°N, 95.1867°W
Report Text: K6R3 202055Z AUTO 00000KT 10SM CLR 27/16 A3001 RMK AO2 T02680164
Loading
Personal Weather Stations






























Interactive Weather Map
Tropical Storm Tracking
New forecast layout! Learn more

10-Day Weather Forecast

Advertisements
Track Severe Weather on mobile